Time;durP1;ratioP1;P1;durP2;ratioP2;P2;SDS_P1;SDS_P2;PMS_P1;PMS_P2;Temp;Humidity;BMP_temperature;BMP_pressure;BME280_temperature;BME280_humidity;BME280_pressure;Samples;Min_cycle;Max_cycle;Signal;HPM_P1;HPM_P2
2021/12/09 00:01:48;;;;;;;39.72;17.10;;;;;;;;;;5051053;28;21114;-67
2021/12/09 00:04:19;;;;;;;43.13;22.27;;;;;;;;;;5051279;28;20282;-66
2021/12/09 00:06:46;;;;;;;40.92;21.45;;;;;;;;;;5051187;28;20213;-67
2021/12/09 00:09:17;;;;;;;53.05;24.45;;;;;;;;;;5051455;28;20244;-67
2021/12/09 00:11:47;;;;;;;47.47;18.88;;;;;;;;;;5051099;28;20757;-67
2021/12/09 00:14:16;;;;;;;66.00;31.95;;;;;;;;;;5050519;28;20305;-66
2021/12/09 00:16:44;;;;;;;38.85;16.90;;;;;;;;;;5050918;28;20248;-67
2021/12/09 00:19:12;;;;;;;62.13;31.92;;;;;;;;;;5051195;28;20694;-67
2021/12/09 00:21:40;;;;;;;40.28;18.83;;;;;;;;;;5044383;28;20209;-66
2021/12/09 00:24:08;;;;;;;51.40;20.67;;;;;;;;;;5050561;28;20233;-66
2021/12/09 00:26:35;;;;;;;53.60;27.42;;;;;;;;;;5050804;28;20282;-66
2021/12/09 00:29:03;;;;;;;188.45;68.22;;;;;;;;;;5051011;28;20208;-66
2021/12/09 00:31:30;;;;;;;62.50;33.47;;;;;;;;;;5050623;28;20209;-67
2021/12/09 00:33:59;;;;;;;61.45;31.33;;;;;;;;;;5050463;28;20205;-66
2021/12/09 00:36:33;;;;;;;54.05;28.45;;;;;;;;;;5050687;28;20205;-67
2021/12/09 00:39:00;;;;;;;61.67;29.17;;;;;;;;;;5050574;28;20209;-67
2021/12/09 00:41:28;;;;;;;53.08;24.40;;;;;;;;;;5050410;28;20692;-66
2021/12/09 00:43:55;;;;;;;89.15;35.75;;;;;;;;;;5050441;28;20216;-66
2021/12/09 00:46:23;;;;;;;68.20;30.90;;;;;;;;;;5050769;28;20209;-66
2021/12/09 00:48:50;;;;;;;65.57;31.27;;;;;;;;;;5050515;28;20201;-66
2021/12/09 00:51:18;;;;;;;95.05;37.88;;;;;;;;;;5050357;28;20205;-66
2021/12/09 00:53:47;;;;;;;50.05;25.90;;;;;;;;;;5050157;28;20205;-67
2021/12/09 00:56:14;;;;;;;73.35;33.47;;;;;;;;;;5049843;28;20236;-67
2021/12/09 00:58:43;;;;;;;46.22;24.73;;;;;;;;;;5050421;28;20236;-67
2021/12/09 01:01:10;;;;;;;59.70;31.30;;;;;;;;;;5049806;28;20652;-68
2021/12/09 01:03:40;;;;;;;42.10;20.83;;;;;;;;;;5050295;28;20237;-66
2021/12/09 01:06:07;;;;;;;53.13;28.30;;;;;;;;;;5049775;28;20213;-66
2021/12/09 01:08:34;;;;;;;51.42;24.52;;;;;;;;;;5050279;28;20204;-66
2021/12/09 01:11:04;;;;;;;34.60;10.90;;;;;;;;;;5050212;28;20200;-67
2021/12/09 01:13:32;;;;;;;32.90;12.73;;;;;;;;;;5050084;28;20583;-66
2021/12/09 01:15:59;;;;;;;47.80;22.38;;;;;;;;;;5049713;28;20318;-66
2021/12/09 01:18:27;;;;;;;36.20;13.27;;;;;;;;;;5049860;28;20205;-66
2021/12/09 01:20:54;;;;;;;41.80;16.23;;;;;;;;;;5049783;28;20201;-67
2021/12/09 01:23:22;;;;;;;35.92;12.60;;;;;;;;;;5050166;28;20307;-67
2021/12/09 01:25:51;;;;;;;40.15;17.65;;;;;;;;;;5049593;28;20237;-66
2021/12/09 01:28:25;;;;;;;44.40;19.05;;;;;;;;;;5049588;28;20205;-66
2021/12/09 01:31:00;;;;;;;35.10;13.50;;;;;;;;;;5044055;28;20255;-67
2021/12/09 01:33:27;;;;;;;30.33;11.93;;;;;;;;;;5049894;28;20296;-68
2021/12/09 01:35:55;;;;;;;36.28;13.68;;;;;;;;;;5049700;28;20610;-66
2021/12/09 01:38:24;;;;;;;41.00;17.45;;;;;;;;;;5049721;28;20198;-66
2021/12/09 01:40:52;;;;;;;43.28;20.48;;;;;;;;;;5049930;28;20205;-67
2021/12/09 01:43:21;;;;;;;55.88;28.00;;;;;;;;;;5049801;28;20251;-66
2021/12/09 01:45:49;;;;;;;31.83;16.20;;;;;;;;;;5049515;28;20301;-66
2021/12/09 01:48:17;;;;;;;40.33;14.25;;;;;;;;;;5049743;28;20588;-67
2021/12/09 01:50:44;;;;;;;35.90;15.10;;;;;;;;;;5049699;28;20270;-66
2021/12/09 01:53:12;;;;;;;40.00;15.05;;;;;;;;;;5049491;28;20299;-67
2021/12/09 01:55:39;;;;;;;37.67;16.52;;;;;;;;;;5049656;28;20233;-66
2021/12/09 01:58:07;;;;;;;50.33;24.90;;;;;;;;;;5049372;28;20217;-66
2021/12/09 02:00:38;;;;;;;55.45;24.70;;;;;;;;;;5049316;28;20201;-66
2021/12/09 02:03:06;;;;;;;65.38;28.77;;;;;;;;;;5049709;28;20657;-66
2021/12/09 02:05:34;;;;;;;57.75;29.60;;;;;;;;;;5049377;28;20209;-66
2021/12/09 02:08:01;;;;;;;49.30;23.45;;;;;;;;;;5049378;28;20318;-67
2021/12/09 02:10:29;;;;;;;52.22;25.05;;;;;;;;;;5049343;28;20221;-66
2021/12/09 02:12:57;;;;;;;39.85;12.45;;;;;;;;;;5049779;28;20223;-66
2021/12/09 02:15:25;;;;;;;59.90;26.00;;;;;;;;;;5053095;28;20690;-67
2021/12/09 02:17:55;;;;;;;34.70;13.25;;;;;;;;;;5053158;28;20205;-66
2021/12/09 02:20:28;;;;;;;36.90;11.93;;;;;;;;;;5053394;28;20209;-66
2021/12/09 02:22:56;;;;;;;38.88;18.13;;;;;;;;;;5053289;28;20209;-67
2021/12/09 02:25:24;;;;;;;35.17;14.80;;;;;;;;;;5052952;28;20273;-66
2021/12/09 02:27:51;;;;;;;33.58;11.35;;;;;;;;;;5053597;28;20240;-67
2021/12/09 02:30:20;;;;;;;34.00;12.68;;;;;;;;;;5053233;28;20297;-66
2021/12/09 02:32:47;;;;;;;36.50;12.85;;;;;;;;;;5053139;28;20296;-66
2021/12/09 02:35:15;;;;;;;36.83;14.40;;;;;;;;;;5053569;28;20279;-66
2021/12/09 02:37:44;;;;;;;36.70;12.80;;;;;;;;;;5052948;28;20209;-66
2021/12/09 02:40:12;;;;;;;51.38;22.58;;;;;;;;;;5052625;28;20213;-67
2021/12/09 02:42:40;;;;;;;46.58;24.30;;;;;;;;;;5052645;28;20216;-66
2021/12/09 02:45:09;;;;;;;32.95;12.07;;;;;;;;;;5052951;28;20303;-67
2021/12/09 02:47:36;;;;;;;45.03;20.90;;;;;;;;;;5052674;28;20205;-67
2021/12/09 02:50:04;;;;;;;34.90;13.27;;;;;;;;;;5052322;28;20762;-66
2021/12/09 02:52:32;;;;;;;47.55;23.42;;;;;;;;;;5052378;28;20219;-67
2021/12/09 02:55:01;;;;;;;49.75;22.17;;;;;;;;;;5052884;28;20253;-66
2021/12/09 02:57:28;;;;;;;38.60;12.57;;;;;;;;;;5052407;28;20296;-66
2021/12/09 02:59:56;;;;;;;35.08;13.13;;;;;;;;;;5052495;28;20598;-72
2021/12/09 03:02:23;;;;;;;27.75;9.90;;;;;;;;;;5052498;28;20205;-67
2021/12/09 03:04:51;;;;;;;34.80;14.57;;;;;;;;;;5052226;28;20307;-66
2021/12/09 03:07:23;;;;;;;36.45;13.50;;;;;;;;;;5052537;28;20271;-66
2021/12/09 03:09:54;;;;;;;29.02;10.23;;;;;;;;;;5052506;28;20209;-66
2021/12/09 03:12:24;;;;;;;40.25;13.55;;;;;;;;;;5052326;28;20580;-67
2021/12/09 03:14:52;;;;;;;28.55;9.93;;;;;;;;;;5052076;28;20248;-67
2021/12/09 03:17:20;;;;;;;36.28;12.60;;;;;;;;;;5051995;28;20252;-66
2021/12/09 03:19:48;;;;;;;31.35;12.23;;;;;;;;;;5045564;28;20201;-66
2021/12/09 03:22:16;;;;;;;37.75;12.30;;;;;;;;;;5051905;28;20228;-66
2021/12/09 03:24:43;;;;;;;34.72;10.70;;;;;;;;;;5051428;28;20238;-66
2021/12/09 03:27:11;;;;;;;37.55;15.07;;;;;;;;;;5051946;28;20212;-67
2021/12/09 03:29:40;;;;;;;28.42;10.93;;;;;;;;;;5051873;28;20210;-66
2021/12/09 03:32:09;;;;;;;39.65;14.40;;;;;;;;;;5051483;28;20737;-67
2021/12/09 03:34:37;;;;;;;29.80;9.27;;;;;;;;;;5051794;28;20212;-67
2021/12/09 03:37:06;;;;;;;35.00;11.30;;;;;;;;;;5051561;28;20808;-66
2021/12/09 03:39:35;;;;;;;31.13;9.55;;;;;;;;;;5051935;28;20240;-66
2021/12/09 03:42:02;;;;;;;46.25;14.00;;;;;;;;;;5044906;28;20204;-67
2021/12/09 03:44:30;;;;;;;28.63;8.88;;;;;;;;;;5051539;28;20220;-66
2021/12/09 03:47:03;;;;;;;25.42;8.88;;;;;;;;;;5051826;28;20300;-66
2021/12/09 03:49:31;;;;;;;33.88;10.57;;;;;;;;;;5051531;28;20213;-65
2021/12/09 03:51:58;;;;;;;23.80;9.07;;;;;;;;;;5051201;28;20209;-66
2021/12/09 03:54:26;;;;;;;24.00;7.10;;;;;;;;;;5051268;28;20636;-66
2021/12/09 03:56:54;;;;;;;28.17;10.13;;;;;;;;;;5051203;28;20221;-66
2021/12/09 03:59:21;;;;;;;26.45;10.20;;;;;;;;;;5051363;28;20220;-67
2021/12/09 04:01:49;;;;;;;42.65;22.15;;;;;;;;;;5051005;28;20213;-66
2021/12/09 04:04:18;;;;;;;69.85;29.50;;;;;;;;;;5051158;28;20224;-67
2021/12/09 04:06:46;;;;;;;67.32;31.13;;;;;;;;;;5051084;28;20339;-66
2021/12/09 04:09:14;;;;;;;42.80;20.10;;;;;;;;;;5051080;28;20205;-67
2021/12/09 04:11:41;;;;;;;38.15;21.20;;;;;;;;;;5051044;28;20736;-68
2021/12/09 04:14:09;;;;;;;36.75;20.55;;;;;;;;;;5050912;28;20209;-67
2021/12/09 04:16:37;;;;;;;45.00;22.80;;;;;;;;;;5050896;28;20229;-67
2021/12/09 04:19:05;;;;;;;65.85;30.30;;;;;;;;;;5051334;28;20300;-66
2021/12/09 04:21:34;;;;;;;36.65;16.17;;;;;;;;;;5051068;28;20306;-66
2021/12/09 04:24:07;;;;;;;42.45;19.35;;;;;;;;;;5051822;28;20260;-70
2021/12/09 04:26:35;;;;;;;33.50;19.10;;;;;;;;;;5050703;28;20217;-66
2021/12/09 04:29:02;;;;;;;70.90;29.88;;;;;;;;;;5050990;28;20241;-67
2021/12/09 04:31:30;;;;;;;47.88;21.67;;;;;;;;;;5043977;28;20205;-66
2021/12/09 04:33:57;;;;;;;31.75;15.63;;;;;;;;;;5050381;28;20209;-66
2021/12/09 04:36:25;;;;;;;78.15;32.47;;;;;;;;;;5049758;28;20705;-66
2021/12/09 04:38:55;;;;;;;26.45;9.20;;;;;;;;;;5050389;28;21030;-66
2021/12/09 04:41:23;;;;;;;30.08;9.90;;;;;;;;;;5050743;28;20216;-67
2021/12/09 04:43:50;;;;;;;25.20;9.77;;;;;;;;;;5050694;28;20209;-66
2021/12/09 04:46:18;;;;;;;32.30;8.68;;;;;;;;;;5050206;28;20212;-66
2021/12/09 04:48:46;;;;;;;32.28;12.27;;;;;;;;;;5050352;28;20232;-66
2021/12/09 04:51:13;;;;;;;48.22;19.52;;;;;;;;;;5050221;28;20247;-66
2021/12/09 04:53:41;;;;;;;57.97;25.17;;;;;;;;;;5050311;28;20209;-66
2021/12/09 04:56:10;;;;;;;63.17;27.17;;;;;;;;;;5050049;28;20468;-66
2021/12/09 04:58:37;;;;;;;47.42;18.80;;;;;;;;;;5050351;28;20220;-66
2021/12/09 05:01:06;;;;;;;27.83;9.40;;;;;;;;;;5050238;28;20213;-66
2021/12/09 05:03:34;;;;;;;30.08;10.00;;;;;;;;;;5050130;28;20205;-66
2021/12/09 05:06:01;;;;;;;26.83;8.90;;;;;;;;;;5049702;28;20304;-66
2021/12/09 05:08:33;;;;;;;35.00;11.40;;;;;;;;;;5049985;28;20674;-67
2021/12/09 05:11:06;;;;;;;31.35;9.48;;;;;;;;;;5049990;28;20670;-65
2021/12/09 05:13:37;;;;;;;32.55;8.68;;;;;;;;;;5050416;28;20216;-66
2021/12/09 05:16:05;;;;;;;74.95;29.23;;;;;;;;;;5049688;28;20320;-66
2021/12/09 05:18:33;;;;;;;88.18;31.48;;;;;;;;;;5049934;28;20213;-67
2021/12/09 05:21:01;;;;;;;51.55;23.55;;;;;;;;;;5050145;28;20219;-66
2021/12/09 05:23:29;;;;;;;38.20;15.65;;;;;;;;;;5049795;28;20636;-66
2021/12/09 05:25:56;;;;;;;57.92;25.17;;;;;;;;;;5049883;28;20594;-72
2021/12/09 05:28:30;;;;;;;43.92;15.80;;;;;;;;;;5049981;28;20236;-65
2021/12/09 05:33:45;;;;;;;31.02;11.02;;;;;;;;;;5049949;28;20211;-66
2021/12/09 05:36:12;;;;;;;32.53;11.30;;;;;;;;;;5049645;28;20225;-66
2021/12/09 05:38:40;;;;;;;31.35;10.43;;;;;;;;;;5049671;28;20209;-66
2021/12/09 05:41:07;;;;;;;28.38;10.07;;;;;;;;;;5049630;28;20209;-66
2021/12/09 05:43:35;;;;;;;31.63;10.73;;;;;;;;;;5049668;28;20236;-66
2021/12/09 05:46:04;;;;;;;33.97;10.63;;;;;;;;;;5049546;28;20206;-67
2021/12/09 05:48:32;;;;;;;33.72;9.55;;;;;;;;;;5052775;28;20215;-68
2021/12/09 05:51:01;;;;;;;35.72;11.10;;;;;;;;;;5053716;28;20212;-66
2021/12/09 05:53:28;;;;;;;32.22;10.25;;;;;;;;;;5053653;28;20216;-66
2021/12/09 05:55:56;;;;;;;38.15;11.48;;;;;;;;;;5053544;28;20233;-66
2021/12/09 05:58:24;;;;;;;31.80;12.10;;;;;;;;;;5053913;28;20248;-67
2021/12/09 06:00:52;;;;;;;34.38;10.70;;;;;;;;;;5053608;28;20201;-66
2021/12/09 06:03:22;;;;;;;36.08;10.45;;;;;;;;;;5053493;28;20213;-66
2021/12/09 06:05:50;;;;;;;30.42;9.23;;;;;;;;;;5053468;28;20209;-66
2021/12/09 06:08:18;;;;;;;32.55;11.18;;;;;;;;;;5053286;28;20220;-66
2021/12/09 06:10:45;;;;;;;33.75;12.52;;;;;;;;;;5054404;28;20219;-66
2021/12/09 06:13:13;;;;;;;41.42;13.15;;;;;;;;;;5054402;28;20205;-66
2021/12/09 06:15:40;;;;;;;36.50;14.05;;;;;;;;;;5053220;28;20233;-67
2021/12/09 06:18:08;;;;;;;43.45;17.65;;;;;;;;;;5053096;28;20205;-67
2021/12/09 06:20:37;;;;;;;44.05;17.10;;;;;;;;;;5053152;28;20237;-66
2021/12/09 06:23:04;;;;;;;40.33;14.63;;;;;;;;;;5052942;28;20213;-67
2021/12/09 06:25:32;;;;;;;35.20;14.90;;;;;;;;;;5053201;28;20283;-68
2021/12/09 06:27:59;;;;;;;48.00;19.80;;;;;;;;;;5052932;28;20686;-69
2021/12/09 06:30:27;;;;;;;43.33;19.60;;;;;;;;;;5053230;28;20245;-67
2021/12/09 06:32:55;;;;;;;57.00;22.23;;;;;;;;;;5052781;28;20214;-67
2021/12/09 06:35:22;;;;;;;38.60;15.82;;;;;;;;;;5052713;28;20690;-68
2021/12/09 06:37:51;;;;;;;37.15;15.27;;;;;;;;;;5052817;28;20765;-67
2021/12/09 06:40:19;;;;;;;35.90;16.27;;;;;;;;;;5052529;28;20217;-67
2021/12/09 06:42:48;;;;;;;29.55;12.13;;;;;;;;;;5052978;28;20244;-67
2021/12/09 06:45:17;;;;;;;30.67;11.30;;;;;;;;;;5052722;28;20205;-66
2021/12/09 06:47:44;;;;;;;33.53;12.73;;;;;;;;;;5052662;28;20252;-67
2021/12/09 06:50:12;;;;;;;29.95;10.50;;;;;;;;;;5052712;28;20267;-68
2021/12/09 06:52:40;;;;;;;30.38;11.98;;;;;;;;;;5052491;28;20636;-67
2021/12/09 06:55:10;;;;;;;29.17;11.35;;;;;;;;;;5052552;28;20709;-67
2021/12/09 06:57:38;;;;;;;33.85;14.00;;;;;;;;;;5052615;28;20229;-67
2021/12/09 07:00:07;;;;;;;30.65;13.02;;;;;;;;;;5051304;28;20677;-66
2021/12/09 07:02:34;;;;;;;29.15;11.50;;;;;;;;;;5052319;28;20211;-68
2021/12/09 07:05:02;;;;;;;31.42;11.80;;;;;;;;;;5052563;28;20244;-68
2021/12/09 07:07:31;;;;;;;27.15;9.68;;;;;;;;;;5052303;28;20219;-67
2021/12/09 07:09:58;;;;;;;24.83;9.27;;;;;;;;;;5052179;28;20209;-67
2021/12/09 07:12:27;;;;;;;32.20;10.15;;;;;;;;;;5052150;28;20292;-67
2021/12/09 07:14:54;;;;;;;22.60;8.20;;;;;;;;;;5051967;28;20226;-67
2021/12/09 07:17:22;;;;;;;25.85;8.48;;;;;;;;;;5051907;28;20240;-67
2021/12/09 07:19:49;;;;;;;24.48;8.75;;;;;;;;;;5052295;28;20243;-68
2021/12/09 07:22:16;;;;;;;25.48;7.90;;;;;;;;;;5051752;28;20209;-67
2021/12/09 07:24:45;;;;;;;21.27;8.13;;;;;;;;;;5052203;28;20243;-67
2021/12/09 07:27:12;;;;;;;25.73;9.18;;;;;;;;;;5045277;28;20214;-67
2021/12/09 07:29:41;;;;;;;26.70;9.30;;;;;;;;;;5051684;28;20199;-67
2021/12/09 07:32:09;;;;;;;24.93;9.33;;;;;;;;;;5051528;28;20466;-66
2021/12/09 07:34:37;;;;;;;25.63;8.63;;;;;;;;;;5052034;28;20455;-67
2021/12/09 07:37:05;;;;;;;23.40;7.93;;;;;;;;;;5051532;28;20498;-67
2021/12/09 07:39:33;;;;;;;24.30;8.73;;;;;;;;;;5051568;28;20910;-68
2021/12/09 07:42:00;;;;;;;23.33;8.10;;;;;;;;;;5051446;28;20830;-68
2021/12/09 07:44:28;;;;;;;24.53;8.73;;;;;;;;;;5051581;28;20451;-67
2021/12/09 07:46:58;;;;;;;23.07;8.97;;;;;;;;;;5051830;28;20452;-65
2021/12/09 07:49:25;;;;;;;25.50;9.43;;;;;;;;;;5045364;28;20454;-69
2021/12/09 07:51:53;;;;;;;25.57;9.80;;;;;;;;;;5051459;28;20443;-68
2021/12/09 07:54:22;;;;;;;27.37;10.53;;;;;;;;;;5051630;28;20457;-68
2021/12/09 07:56:50;;;;;;;22.50;9.40;;;;;;;;;;5051175;28;20501;-67
2021/12/09 07:59:17;;;;;;;22.77;9.33;;;;;;;;;;5051476;28;20809;-69
2021/12/09 08:01:46;;;;;;;22.30;9.10;;;;;;;;;;5051239;28;20479;-67
2021/12/09 08:04:15;;;;;;;22.60;8.97;;;;;;;;;;5050906;28;21028;-68
2021/12/09 08:06:42;;;;;;;26.57;10.20;;;;;;;;;;5051238;28;20461;-68
2021/12/09 08:09:11;;;;;;;25.27;10.43;;;;;;;;;;5050974;28;20462;-67
2021/12/09 08:11:40;;;;;;;28.40;10.33;;;;;;;;;;5051086;28;20539;-67
2021/12/09 08:14:10;;;;;;;27.20;10.33;;;;;;;;;;5051099;28;20832;-68
2021/12/09 08:16:38;;;;;;;26.13;10.20;;;;;;;;;;5050800;28;20491;-68
2021/12/09 08:19:05;;;;;;;25.90;10.40;;;;;;;;;;5051033;28;20482;-67
2021/12/09 08:21:36;;;;;;;20.87;7.87;;;;;;;;;;5050760;28;20451;-68
2021/12/09 08:24:04;;;;;;;24.40;9.27;;;;;;;;;;5050539;28;20488;-67
2021/12/09 08:26:32;;;;;;;22.17;8.37;;;;;;;;;;5050882;28;20460;-67
2021/12/09 08:28:59;;;;;;;22.97;9.17;;;;;;;;;;5050699;28;20458;-67
2021/12/09 08:31:29;;;;;;;23.03;8.67;;;;;;;;;;5050761;28;20829;-66
2021/12/09 08:33:57;;;;;;;26.50;10.10;;;;;;;;;;5050562;28;21093;-69
2021/12/09 08:36:25;;;;;;;25.00;8.57;;;;;;;;;;5050760;28;20550;-67
2021/12/09 08:38:54;;;;;;;23.95;8.68;;;;;;;;;;5050906;28;20560;-67
2021/12/09 08:41:23;;;;;;;22.38;7.57;;;;;;;;;;5050629;28;20209;-66
2021/12/09 08:43:51;;;;;;;25.60;9.40;;;;;;;;;;5050797;28;20704;-67
2021/12/09 08:46:18;;;;;;;20.90;6.53;;;;;;;;;;5050303;28;20448;-67
2021/12/09 08:48:47;;;;;;;24.73;9.07;;;;;;;;;;5050216;28;20452;-67
2021/12/09 08:51:15;;;;;;;23.30;8.00;;;;;;;;;;5050299;28;20506;-68
2021/12/09 08:53:42;;;;;;;23.00;7.70;;;;;;;;;;5050529;28;20547;-70
2021/12/09 08:56:11;;;;;;;26.57;8.80;;;;;;;;;;5050076;28;20517;-67
2021/12/09 08:58:39;;;;;;;27.77;9.10;;;;;;;;;;5050256;28;20502;-67
2021/12/09 09:01:11;;;;;;;29.90;11.40;;;;;;;;;;5050260;28;20498;-68
2021/12/09 09:03:39;;;;;;;24.27;8.93;;;;;;;;;;5044472;28;20482;-67
2021/12/09 09:06:06;;;;;;;21.47;9.07;;;;;;;;;;5043377;28;20451;-67
2021/12/09 09:08:34;;;;;;;25.30;8.77;;;;;;;;;;5049904;28;20458;-67
2021/12/09 09:11:01;;;;;;;25.30;8.50;;;;;;;;;;5049961;28;20538;-67
2021/12/09 09:13:30;;;;;;;21.90;7.60;;;;;;;;;;5050003;28;20535;-67
2021/12/09 09:15:58;;;;;;;22.00;7.33;;;;;;;;;;5049577;28;20482;-67
2021/12/09 09:18:25;;;;;;;22.03;7.43;;;;;;;;;;5049888;28;20580;-67
2021/12/09 09:20:53;;;;;;;23.73;7.80;;;;;;;;;;5049904;28;20965;-68
2021/12/09 09:23:22;;;;;;;20.00;6.70;;;;;;;;;;5049669;28;20466;-67
2021/12/09 09:25:50;;;;;;;24.80;7.33;;;;;;;;;;5049770;28;20479;-67
2021/12/09 09:28:18;;;;;;;23.47;8.23;;;;;;;;;;5049541;28;20837;-68
2021/12/09 09:30:53;;;;;;;23.80;7.40;;;;;;;;;;5050091;28;20459;-67
2021/12/09 09:33:21;;;;;;;20.73;7.60;;;;;;;;;;5049940;28;20974;-68
2021/12/09 09:35:48;;;;;;;22.60;6.30;;;;;;;;;;5049888;28;20535;-67
2021/12/09 09:38:16;;;;;;;20.23;7.37;;;;;;;;;;5049623;28;20482;-66
2021/12/09 09:40:49;;;;;;;22.67;6.90;;;;;;;;;;5049687;28;20438;-67
2021/12/09 09:43:28;;;;;;;30.43;9.03;;;;;;;;;;5049983;28;21351;-67
2021/12/09 09:45:59;;;;;;;20.43;7.13;;;;;;;;;;5049340;28;20457;-73
2021/12/09 09:48:29;;;;;;;25.53;8.60;;;;;;;;;;5049721;28;20999;-68
2021/12/09 09:50:56;;;;;;;20.40;5.17;;;;;;;;;;5049518;28;20957;-66
2021/12/09 09:53:23;;;;;;;22.70;7.60;;;;;;;;;;5049742;28;20458;-67
2021/12/09 09:55:51;;;;;;;26.40;8.20;;;;;;;;;;5049536;28;20444;-67
2021/12/09 09:58:18;;;;;;;27.45;8.40;;;;;;;;;;5049278;28;20229;-66
2021/12/09 10:00:47;;;;;;;23.50;7.75;;;;;;;;;;5049747;28;20205;-68
2021/12/09 10:03:17;;;;;;;24.70;7.90;;;;;;;;;;5042812;28;20220;-66
2021/12/09 10:05:46;;;;;;;27.42;8.20;;;;;;;;;;5049400;28;20257;-67
2021/12/09 10:08:13;;;;;;;23.85;8.02;;;;;;;;;;5049394;28;20222;-67
2021/12/09 10:10:41;;;;;;;21.93;7.40;;;;;;;;;;5049779;28;20212;-67
2021/12/09 10:13:10;;;;;;;23.83;9.43;;;;;;;;;;5049400;28;20982;-67
2021/12/09 10:15:39;;;;;;;28.97;8.50;;;;;;;;;;5049385;28;20486;-68
2021/12/09 10:18:06;;;;;;;23.23;8.47;;;;;;;;;;5049046;28;20480;-67
2021/12/09 10:20:46;;;;;;;25.37;8.10;;;;;;;;;;5049242;28;20888;-68
2021/12/09 10:23:27;;;;;;;26.30;9.07;;;;;;;;;;5049498;28;20948;-68
2021/12/09 10:26:14;;;;;;;22.83;7.40;;;;;;;;;;5049304;28;20457;-67
2021/12/09 10:28:44;;;;;;;30.60;7.27;;;;;;;;;;5049075;28;20834;-67
2021/12/09 10:31:14;;;;;;;23.80;7.13;;;;;;;;;;5049320;28;21009;-68
2021/12/09 10:33:59;;;;;;;24.88;8.00;;;;;;;;;;5049506;28;20211;-67
2021/12/09 10:36:45;;;;;;;24.52;8.80;;;;;;;;;;5052958;28;20275;-67
2021/12/09 10:39:20;;;;;;;30.60;7.73;;;;;;;;;;5052716;28;20236;-69
2021/12/09 10:41:48;;;;;;;20.60;6.33;;;;;;;;;;5052786;28;20443;-68
2021/12/09 10:44:15;;;;;;;26.05;9.55;;;;;;;;;;5052636;28;20449;-68
2021/12/09 10:46:48;;;;;;;26.08;7.63;;;;;;;;;;5052676;28;20221;-67
2021/12/09 10:49:17;;;;;;;23.00;7.95;;;;;;;;;;5052740;28;20224;-68
2021/12/09 10:51:56;;;;;;;28.50;9.52;;;;;;;;;;5052473;28;20685;-67
2021/12/09 10:54:34;;;;;;;28.55;8.90;;;;;;;;;;5052809;28;20220;-68
2021/12/09 10:57:20;;;;;;;28.58;9.38;;;;;;;;;;5052571;28;20224;-69
2021/12/09 10:59:47;;;;;;;26.95;9.75;;;;;;;;;;5048187;28;20213;-67
2021/12/09 11:02:15;;;;;;;24.38;8.35;;;;;;;;;;5052043;28;20201;-67
2021/12/09 11:04:42;;;;;;;22.15;7.82;;;;;;;;;;5052663;28;20217;-70
2021/12/09 11:07:28;;;;;;;26.17;8.00;;;;;;;;;;5052292;28;20670;-68
2021/12/09 11:10:10;;;;;;;31.67;9.52;;;;;;;;;;5047315;28;20201;-67
2021/12/09 11:12:38;;;;;;;23.70;8.98;;;;;;;;;;5052161;28;20343;-68
2021/12/09 11:15:06;;;;;;;26.55;10.30;;;;;;;;;;5052004;28;20236;-67
2021/12/09 11:17:39;;;;;;;28.70;9.93;;;;;;;;;;5051951;28;20319;-68
2021/12/09 11:20:06;;;;;;;22.92;5.53;;;;;;;;;;5051820;28;20721;-67
2021/12/09 11:22:37;;;;;;;25.80;8.30;;;;;;;;;;5052117;28;20205;-67
2021/12/09 11:25:07;;;;;;;24.52;6.43;;;;;;;;;;5045368;28;20244;-69
2021/12/09 11:27:34;;;;;;;24.13;7.32;;;;;;;;;;5051995;28;20205;-68
2021/12/09 11:30:09;;;;;;;28.15;8.30;;;;;;;;;;5051571;28;20609;-67
2021/12/09 11:32:42;;;;;;;24.33;8.80;;;;;;;;;;5051866;28;20221;-66
2021/12/09 11:35:14;;;;;;;23.52;6.80;;;;;;;;;;5051779;28;20255;-67
2021/12/09 11:37:48;;;;;;;20.45;4.90;;;;;;;;;;5051947;28;20775;-69
2021/12/09 11:40:20;;;;;;;25.52;7.38;;;;;;;;;;5051439;28;20589;-66
2021/12/09 11:42:51;;;;;;;22.20;6.22;;;;;;;;;;5051830;28;20246;-68
2021/12/09 11:45:20;;;;;;;25.05;8.82;;;;;;;;;;5051377;28;20207;-67
2021/12/09 11:47:48;;;;;;;22.80;8.02;;;;;;;;;;5051470;28;20216;-67
2021/12/09 11:50:17;;;;;;;26.92;9.75;;;;;;;;;;5051855;28;20492;-69
2021/12/09 11:52:46;;;;;;;23.83;8.23;;;;;;;;;;5051742;28;20212;-67
2021/12/09 11:55:15;;;;;;;32.33;10.30;;;;;;;;;;5051528;28;20208;-67
2021/12/09 11:57:46;;;;;;;27.40;9.45;;;;;;;;;;5051308;28;20208;-69
2021/12/09 12:11:55;;;;;;;27.27;10.20;;;;;;;;;;5051197;28;20211;-69
2021/12/09 12:14:37;;;;;;;28.55;11.15;;;;;;;;;;5050830;28;20247;-68
2021/12/09 12:17:20;;;;;;;23.60;6.53;;;;;;;;;;5051019;28;20209;-67
2021/12/09 12:20:00;;;;;;;25.98;7.20;;;;;;;;;;5051071;28;20301;-69
2021/12/09 12:26:09;;;;;;;25.73;7.13;;;;;;;;;;5040247;28;20931;-68
2021/12/09 12:34:56;;;;;;;25.15;9.45;;;;;;;;;;5014691;28;20243;-67
2021/12/09 12:37:44;;;;;;;24.85;9.35;;;;;;;;;;5051008;28;20216;-67
2021/12/09 12:40:15;;;;;;;24.33;8.35;;;;;;;;;;5050297;28;20235;-68
2021/12/09 12:42:49;;;;;;;22.63;6.35;;;;;;;;;;5044597;28;20230;-68
2021/12/09 12:45:42;;;;;;;24.50;7.35;;;;;;;;;;5044694;28;20210;-66
2021/12/09 12:48:34;;;;;;;20.52;6.25;;;;;;;;;;5046817;28;20220;-67
2021/12/09 12:51:08;;;;;;;18.17;4.35;;;;;;;;;;5050360;28;20245;-67
2021/12/09 12:53:39;;;;;;;22.02;6.80;;;;;;;;;;5050443;28;20641;-66
2021/12/09 12:56:17;;;;;;;23.52;7.55;;;;;;;;;;5049956;28;20202;-67
2021/12/09 12:59:03;;;;;;;23.83;7.47;;;;;;;;;;5049870;28;20230;-67
2021/12/09 13:01:32;;;;;;;19.95;6.07;;;;;;;;;;5044262;28;20210;-67
2021/12/09 13:04:12;;;;;;;19.50;4.35;;;;;;;;;;5050021;28;20209;-67
2021/12/09 13:06:43;;;;;;;25.88;8.13;;;;;;;;;;5050155;28;20202;-67
2021/12/09 13:09:27;;;;;;;21.33;6.13;;;;;;;;;;5050288;28;20229;-66
2021/12/09 13:12:01;;;;;;;20.05;7.10;;;;;;;;;;5050563;28;20298;-66
2021/12/09 13:14:32;;;;;;;23.08;4.47;;;;;;;;;;5050191;28;20211;-66
2021/12/09 13:17:04;;;;;;;22.48;7.03;;;;;;;;;;5050502;28;20661;-66
2021/12/09 13:19:37;;;;;;;25.25;9.50;;;;;;;;;;5050770;28;20293;-66
2021/12/09 13:22:06;;;;;;;25.80;8.50;;;;;;;;;;5050773;28;20714;-66
2021/12/09 13:24:41;;;;;;;27.20;9.88;;;;;;;;;;5050727;28;20231;-69
2021/12/09 13:27:24;;;;;;;25.75;7.82;;;;;;;;;;5045121;28;20738;-67
2021/12/09 13:30:05;;;;;;;22.75;6.00;;;;;;;;;;5050543;28;20733;-67
2021/12/09 13:32:54;;;;;;;27.05;9.77;;;;;;;;;;5050871;28;20890;-67
2021/12/09 13:35:31;;;;;;;27.48;10.50;;;;;;;;;;5050864;28;20215;-66
2021/12/09 13:38:16;;;;;;;25.83;8.60;;;;;;;;;;5050376;28;20215;-67
2021/12/09 13:46:23;;;;;;;30.85;11.38;;;;;;;;;;5047684;28;20210;-66
2021/12/09 13:49:05;;;;;;;20.60;5.18;;;;;;;;;;5050475;28;20210;-66
2021/12/09 13:51:56;;;;;;;25.70;7.82;;;;;;;;;;5050747;28;20209;-67
2021/12/09 13:54:24;;;;;;;33.42;10.30;;;;;;;;;;5044349;28;20568;-67
2021/12/09 13:56:56;;;;;;;20.02;5.53;;;;;;;;;;5050872;28;20224;-67
2021/12/09 13:59:24;;;;;;;20.90;7.60;;;;;;;;;;5050373;28;20663;-67
2021/12/09 14:01:53;;;;;;;20.75;6.55;;;;;;;;;;5050553;28;20216;-66
2021/12/09 14:04:24;;;;;;;28.88;10.00;;;;;;;;;;5050699;28;20584;-66
2021/12/09 14:06:59;;;;;;;26.98;9.50;;;;;;;;;;5050361;28;20213;-66
2021/12/09 14:09:28;;;;;;;30.98;10.43;;;;;;;;;;5053173;28;20219;-67
2021/12/09 14:11:56;;;;;;;22.10;7.28;;;;;;;;;;5054159;28;20214;-70
2021/12/09 14:14:35;;;;;;;25.63;8.55;;;;;;;;;;5054434;28;21073;-67
2021/12/09 14:17:09;;;;;;;19.27;5.95;;;;;;;;;;5054180;28;20212;-66
2021/12/09 14:22:26;;;;;;;37.80;12.35;;;;;;;;;;5054068;28;20211;-67
2021/12/09 14:24:54;;;;;;;24.17;9.00;;;;;;;;;;5053940;28;20307;-67
2021/12/09 14:27:22;;;;;;;25.67;9.65;;;;;;;;;;5054069;28;20631;-66
2021/12/09 14:29:50;;;;;;;32.35;13.10;;;;;;;;;;5053869;28;20212;-66
2021/12/09 14:32:18;;;;;;;39.60;13.23;;;;;;;;;;5053534;28;20205;-67
2021/12/09 14:34:48;;;;;;;29.10;8.90;;;;;;;;;;5053701;28;20209;-66
2021/12/09 14:37:16;;;;;;;37.17;13.63;;;;;;;;;;5053943;28;20209;-66
2021/12/09 14:39:44;;;;;;;32.60;12.05;;;;;;;;;;5053689;28;20233;-67
2021/12/09 14:42:13;;;;;;;22.48;6.03;;;;;;;;;;5053701;28;20205;-66
2021/12/09 14:44:41;;;;;;;33.92;11.95;;;;;;;;;;5046983;28;20209;-66
2021/12/09 14:47:10;;;;;;;38.03;14.27;;;;;;;;;;5053556;28;20244;-67
2021/12/09 14:49:45;;;;;;;32.70;13.73;;;;;;;;;;5053649;28;20209;-68
2021/12/09 14:52:14;;;;;;;38.10;15.80;;;;;;;;;;5053326;28;20581;-66
2021/12/09 14:54:42;;;;;;;38.50;13.23;;;;;;;;;;5053504;28;20216;-67
2021/12/09 14:57:10;;;;;;;27.42;10.27;;;;;;;;;;5053558;28;20221;-66
2021/12/09 14:59:39;;;;;;;37.63;12.57;;;;;;;;;;5053084;28;20240;-65
2021/12/09 15:02:08;;;;;;;35.67;13.75;;;;;;;;;;5052959;28;20303;-67
2021/12/09 15:04:40;;;;;;;46.80;16.85;;;;;;;;;;5053401;28;20300;-66
2021/12/09 15:07:11;;;;;;;48.42;21.15;;;;;;;;;;5053142;28;20296;-66
2021/12/09 15:09:40;;;;;;;40.60;13.40;;;;;;;;;;5053251;28;20213;-67
2021/12/09 15:12:09;;;;;;;32.85;12.55;;;;;;;;;;5052789;28;20209;-68